Relevés horaires Matro (Suisse)


Relevés horaires à Matro - Samedi 24 Janv. 2015
Heure UTC1 Température [°C] Vent [km/h] Hum. [%] Pres.4 [hPa] Visi. [Km] Nébu. [octa] Préc.5 [mm] Cond.
2m. Res. Ros. Dir.2 Vit. Moy. Raf.3
23:00 -10.0 -22.9 -15.2 NNO 63.0 63.0 77.8 66 850(0.1/3h) -- -- -- --
22:00 -10.2 -22.7 -15.4 NNO 57.4 61.1 75.9 66 850(1.0/3h) -- -- -- --
21:00 -10.5 -23.3 -15.2 NNO 59.3 66.7 85.2 68 850(1.3/3h) -- -- -- --
20:00 -10.4 -23 -15.7 NNO 57.4 66.7 85.2 65 850(1.3/3h) -- -- -- --
19:00 -10.4 -23.4 -15.0 NNO 63.0 64.8 83.3 69 850(1.3/3h) -- -- -- --
18:00 -9.9 -22.7 -16.4 NNO 63.0 57.4 81.5 59 850(0.4/3h) -- -- -- --
17:00 -8.1 -18.5 -20.0 NNO 42.6 46.3 68.5 38 850(0.0/3h) -- -- -- --
16:00 -6.8 -17.1 -21.2 NO 46.3 46.3 68.5 31 850(-1.2/3h) -- -- -- --
15:00 -5.3 -14.5 -24.1 NO 40.7 48.2 75.9 21 850(-1.5/3h) -- -- -- --
14:00 -4.7 -14.4 -23.4 NO 48.2 48.2 75.9 21 850(-2.0/3h) -- -- -- --
13:00 -3.7 -12.2 -23.3 NO 38.9 46.3 61.1 20 850(-1.8/3h) -- -- -- --
12:00 -3.6 -11.1 -24.7 NO 29.6 46.3 61.1 18 850(-0.8/3h) -- -- -- --
11:00 -3.7 -9.3 -20.1 NO 16.7 29.6 37.0 27 850(0.0/3h) -- -- -- --
10:00 -4.0 -11.6 -16.1 NNO 29.6 38.9 50.0 38 850(0.1/3h) -- -- -- --
09:00 -4.0 -12.6 -15.4 NO 38.9 46.3 61.1 41 850(-0.1/3h) -- -- -- --
08:00 -4.2 -13.6 -14.7 NNO 46.3 46.3 57.4 44 850(-0.2/3h) -- -- -- --
07:00 -4.7 -13.4 -14.2 NNO 37.0 38.9 51.9 47 850(0.0/3h) -- -- -- --
06:00 -4.8 -13.7 -13.5 NNO 38.9 53.7 72.2 50 850(-0.3/3h) -- -- -- --
05:00 -4.9 -14.2 -13.4 NNO 42.6 48.2 72.2 51 850(-0.6/3h) -- -- -- --
04:00 -4.8 -14.2 -13.5 NNO 44.4 53.7 68.5 50 850(-0.4/3h) -- -- -- --
03:00 -4.9 -14.4 -12.6 NNO 44.4 53.7 70.4 55 850(-0.4/3h) -- -- -- --
02:00 -4.7 -14.7 -12.8 NNO 51.9 53.7 68.5 53 850(-0.4/3h) -- -- -- --
01:00 -4.9 -15.1 -12.7 NNO 53.7 53.7 68.5 54 850(-0.4/3h) -- -- -- --
00:00 -5.3 -15.4 -12.0 NNO 50.0 51.9 72.2 59 850(-0.2/3h) -- -- -- --

1 Coordinated Universal Time. Actuellement il est 13:00 locale et 11:00 UTC.

2 Le vent souffle depuis la direction indiquée vers la direction oposée.

3 Les rafales max. sont disponible 40 min après l'heure du relevé.

4 Pour les stations d'altitude (plus de 600m) le géopotentiel du niveau le plus proche de la pression obligatoire est indiqué.

5 Les stations disposant d'un diffuseur peuvent indiquer "trace". Cela signifie que des précipitations ont touchés le sol mais que la quantité est inférieure à 0.1 mm.

Copyright

Les données affichées sur cette page sont la propriété exclusive de Météo Suisse.

Récapitulatif de la journée
Température [°C] Vent [km/h] Ensoleillement4 [h] Precipitations totale5 [mm] Pression [Hpa]
Min1 Max.2 Moy.3 Max. Min Max.
-5.3 -3.3 51.2 85.2 5 h 12 min 0 850.0 850.0

1 Température minimale relevée entre 18:00 UTC la veille et 18:00 UTC le jour donné.

2 Température maximale relevée entre 06:00 UTC le jour donné et 06:00 UTC le lendemain.

3 Vent moyen de la journée basé sur les relevés horaires.

4 Ensoleillement en heures relevé entre 06:00 UTC la veille et 06:00 UTC le jour donné.

5 Précipitations totales tombées entre 06:00 UTC la jour donné et 06:00 UTC le lendemain.

Graphiques horaires